Kortcamp, Illinois
Current Conditions -  °F | °C
As of 7:15 PM on Tuesday 21 Oct 2014 (Local Time) from K3LF Reporting Station
Clear Clear  
Wind Chill: 51°   Ceiling: Unl
Heat Index: 51°   Visibility: 10mi
Dew Point: 38°   Wind: 5mph
Humidity: 62%   Direction: 40°NE
Pressure: 30.17"   Gusts: NA
Location:  39.1415°N, 89.5029°W
Report Text: K3LF 220015Z AUTO 04004KT 10SM CLR 11/04 A3017 RMK AO2 T01060036
Loading
Personal Weather Stations






























Interactive Weather Map New forecast layout! Learn more

10-Day Weather Forecast

Advertisements
Track Severe Weather on mobile